createdAt,value
2022-08-08T00:00:56.638Z,99451.22
2022-08-08T00:03:31.684Z,99454.31
2022-08-08T00:07:13.140Z,99444.41
2022-08-08T00:10:16.963Z,99444.81
2022-08-08T00:14:15.234Z,99451.63
2022-08-08T00:17:23.186Z,99445.84
2022-08-08T00:20:50.469Z,99440.03
2022-08-08T00:23:54.403Z,99444.59
2022-08-08T00:27:01.830Z,99453.72
2022-08-08T00:30:11.271Z,99450.81
2022-08-08T00:33:24.065Z,99452.47
2022-08-08T00:36:34.988Z,99448.75
2022-08-08T00:41:13.012Z,99451.66
2022-08-08T00:43:40.218Z,99443.78
2022-08-08T00:47:24.736Z,99448.56
2022-08-08T00:50:48.217Z,99450.00
2022-08-08T00:54:13.333Z,99442.56
2022-08-08T00:57:40.801Z,99439.03
2022-08-08T01:01:29.361Z,99438.84
2022-08-08T01:05:29.291Z,99440.44
2022-08-08T01:09:34.816Z,99435.50
2022-08-08T01:13:43.298Z,99436.50
2022-08-08T01:17:44.860Z,99431.75
2022-08-08T01:22:03.817Z,99443.16
2022-08-08T01:25:26.254Z,99445.84
2022-08-08T01:28:59.303Z,99440.88
2022-08-08T01:32:24.850Z,99445.84
2022-08-08T01:36:01.156Z,99449.16
2022-08-08T01:39:24.241Z,99450.78
2022-08-08T01:42:49.951Z,99454.97
2022-08-08T01:46:18.907Z,99452.88
2022-08-08T01:49:45.907Z,99442.94
2022-08-08T01:55:17.675Z,99460.34
2022-08-08T01:57:24.275Z,99463.88
2022-08-08T02:00:36.260Z,99449.78
2022-08-08T02:03:55.624Z,99445.25
2022-08-08T02:07:16.630Z,99448.53
2022-08-08T02:10:44.988Z,99445.66
2022-08-08T02:14:34.431Z,99452.69
2022-08-08T02:18:10.269Z,99446.88
2022-08-08T02:21:42.932Z,99454.53
2022-08-08T02:25:11.985Z,99456.78
2022-08-08T02:28:26.163Z,99454.53
2022-08-08T02:32:01.060Z,99457.00
2022-08-08T02:36:05.207Z,99450.78
2022-08-08T02:39:42.300Z,99454.31
2022-08-08T02:44:34.986Z,99450.75
2022-08-08T02:46:54.256Z,99447.22
2022-08-08T02:50:20.900Z,99441.44
2022-08-08T02:53:50.703Z,99441.84
2022-08-08T02:57:17.250Z,99446.59
2022-08-08T03:00:35.678Z,99452.19
2022-08-08T03:05:04.548Z,99449.47
2022-08-08T03:07:58.231Z,99462.25
2022-08-08T03:11:47.628Z,99458.16
2022-08-08T03:15:56.685Z,99476.97
2022-08-08T03:18:33.223Z,99470.34
2022-08-08T03:21:40.715Z,99468.47
2022-08-08T03:24:57.808Z,99463.97
2022-08-08T03:28:04.931Z,99459.22
2022-08-08T03:31:30.389Z,99460.03
2022-08-08T03:34:41.223Z,99455.69
2022-08-08T03:38:53.755Z,99456.94
2022-08-08T03:42:03.943Z,99460.25
2022-08-08T03:44:32.902Z,99458.16
2022-08-08T03:47:45.425Z,99470.56
2022-08-08T03:50:50.273Z,99476.97
2022-08-08T03:53:56.154Z,99475.31
2022-08-08T03:56:59.856Z,99475.09
2022-08-08T04:00:26.109Z,99475.34
2022-08-08T04:03:59.860Z,99480.06
2022-08-08T04:07:01.863Z,99473.09
2022-08-08T04:10:11.104Z,99469.78
2022-08-08T04:13:17.896Z,99476.00
2022-08-08T04:16:38.325Z,99476.41
2022-08-08T04:19:44.161Z,99474.38
2022-08-08T04:22:51.615Z,99489.31
2022-08-08T04:25:54.784Z,99480.22
2022-08-08T04:28:57.445Z,99486.00
2022-08-08T04:32:00.925Z,99492.69
2022-08-08T04:35:06.347Z,99492.66
2022-08-08T04:38:21.663Z,99489.16
2022-08-08T04:41:25.105Z,99488.97
2022-08-08T04:44:39.522Z,99495.81
2022-08-08T04:47:46.248Z,99489.38
2022-08-08T04:50:51.796Z,99496.00
2022-08-08T04:54:38.186Z,99488.72
2022-08-08T04:57:20.818Z,99496.41
2022-08-08T05:00:25.223Z,99495.56
2022-08-08T05:04:09.782Z,99501.53
2022-08-08T05:06:52.145Z,99499.63
2022-08-08T05:09:56.826Z,99494.44
2022-08-08T05:13:02.614Z,99501.25
2022-08-08T05:16:55.602Z,99504.72
2022-08-08T05:20:12.632Z,99501.38
2022-08-08T05:23:02.103Z,99514.88
2022-08-08T05:26:07.004Z,99512.09
2022-08-08T05:29:08.838Z,99501.19
2022-08-08T05:32:13.079Z,99502.94
2022-08-08T05:35:19.001Z,99506.34
2022-08-08T05:38:32.003Z,99505.38
2022-08-08T05:41:54.986Z,99506.81
2022-08-08T05:45:10.358Z,99519.66
2022-08-08T05:48:28.948Z,99522.22
2022-08-08T05:51:48.235Z,99527.84
2022-08-08T05:54:57.227Z,99521.53
2022-08-08T05:58:17.292Z,99520.84
2022-08-08T06:01:52.721Z,99524.06
2022-08-08T06:04:54.404Z,99526.25
2022-08-08T06:08:02.030Z,99532.09
2022-08-08T06:11:06.711Z,99535.56
2022-08-08T06:14:12.825Z,99545.19
2022-08-08T06:17:19.461Z,99550.69
2022-08-08T06:20:34.761Z,99561.88
2022-08-08T06:23:48.963Z,99552.13
2022-08-08T06:27:04.740Z,99547.44
2022-08-08T06:30:19.752Z,99553.16
2022-08-08T06:33:36.954Z,99551.44
2022-08-08T06:37:01.989Z,99558.78
2022-08-08T06:40:25.864Z,99553.44
2022-08-08T06:43:34.705Z,99561.06
2022-08-08T06:46:40.293Z,99556.22
2022-08-08T06:49:55.520Z,99560.50
2022-08-08T06:53:09.495Z,99564.84
2022-08-08T06:56:23.254Z,99563.59
2022-08-08T06:59:27.106Z,99568.06
2022-08-08T07:02:45.190Z,99577.47
2022-08-08T07:06:02.268Z,99581.88
2022-08-08T07:09:20.775Z,99575.13
2022-08-08T07:12:41.323Z,99586.16
2022-08-08T07:16:29.033Z,99580.81
2022-08-08T07:19:41.916Z,99585.81
2022-08-08T07:23:04.639Z,99593.72
2022-08-08T07:26:10.627Z,99595.97
2022-08-08T07:29:58.737Z,99595.56
2022-08-08T07:32:38.436Z,99605.72
2022-08-08T07:35:41.912Z,99607.63
2022-08-08T07:38:52.859Z,99595.72
2022-08-08T07:42:04.369Z,99597.03
2022-08-08T07:45:09.108Z,99595.59
2022-08-08T07:48:15.175Z,99606.28
2022-08-08T07:51:23.378Z,99615.66
2022-08-08T07:54:49.123Z,99625.69
2022-08-08T07:58:13.616Z,99643.69
2022-08-08T08:01:27.068Z,99645.38
2022-08-08T08:04:52.311Z,99637.25
2022-08-08T08:08:04.437Z,99610.94
2022-08-08T08:11:19.845Z,99617.06
2022-08-08T08:14:54.393Z,99625.44
2022-08-08T08:18:03.337Z,99634.50
2022-08-08T08:21:13.278Z,99639.44
2022-08-08T08:24:21.128Z,99636.25
2022-08-08T08:27:34.577Z,99629.41
2022-08-08T08:30:38.495Z,99632.22
2022-08-08T08:33:40.795Z,99635.72
2022-08-08T08:36:51.389Z,99630.28
2022-08-08T08:40:01.106Z,99626.47
2022-08-08T08:43:16.882Z,99639.75
2022-08-08T08:46:25.698Z,99646.28
2022-08-08T08:49:33.946Z,99642.38
2022-08-08T08:52:58.571Z,99638.22
2022-08-08T08:56:03.210Z,99643.22
2022-08-08T08:59:15.103Z,99638.25
2022-08-08T09:02:24.203Z,99633.91
2022-08-08T09:05:54.377Z,99628.25
2022-08-08T09:09:25.958Z,99632.41
2022-08-08T09:12:50.594Z,99630.50
2022-08-08T09:16:03.561Z,99638.34
2022-08-08T09:19:09.678Z,99641.00
2022-08-08T09:22:13.562Z,99654.44
2022-08-08T09:25:36.013Z,99653.81
2022-08-08T09:29:05.248Z,99649.84
2022-08-08T09:32:17.097Z,99652.47
2022-08-08T09:35:32.178Z,99644.19
2022-08-08T09:38:59.003Z,99643.75
2022-08-08T09:42:19.984Z,99638.81
2022-08-08T09:46:02.954Z,99640.31
2022-08-08T09:49:41.852Z,99645.06
2022-08-08T09:52:54.161Z,99637.75
2022-08-08T09:56:04.527Z,99629.34
2022-08-08T09:59:39.757Z,99632.19
2022-08-08T10:02:40.062Z,99631.63
2022-08-08T10:05:43.110Z,99644.00
2022-08-08T10:08:50.831Z,99652.72
2022-08-08T10:12:28.148Z,99656.00
2022-08-08T10:15:18.107Z,99657.59
2022-08-08T10:18:25.445Z,99658.00
2022-08-08T10:21:33.382Z,99667.25
2022-08-08T10:24:46.535Z,99677.50
2022-08-08T10:27:52.226Z,99670.72
2022-08-08T10:31:21.467Z,99662.13
2022-08-08T10:34:57.065Z,99655.06
2022-08-08T10:38:05.494Z,99658.38
2022-08-08T10:41:16.269Z,99650.84
2022-08-08T10:44:24.492Z,99668.06
2022-08-08T10:47:30.614Z,99665.66
2022-08-08T10:50:45.154Z,99668.56
2022-08-08T10:53:57.146Z,99659.00
2022-08-08T10:57:03.648Z,99662.06
2022-08-08T11:00:07.371Z,99657.84
2022-08-08T11:03:15.916Z,99662.06
2022-08-08T11:06:18.041Z,99657.53
2022-08-08T11:09:21.849Z,99651.31
2022-08-08T11:12:24.796Z,99651.53
2022-08-08T11:15:31.467Z,99657.63
2022-08-08T11:18:36.924Z,99656.88
2022-08-08T11:21:54.217Z,99653.19
2022-08-08T11:25:03.637Z,99652.47
2022-08-08T11:28:25.557Z,99656.44
2022-08-08T11:31:46.788Z,99657.19
2022-08-08T11:35:23.192Z,99673.16
2022-08-08T11:38:39.340Z,99665.63
2022-08-08T11:41:45.060Z,99667.19
2022-08-08T11:44:49.114Z,99676.94
2022-08-08T11:48:02.914Z,99683.22
2022-08-08T11:51:37.902Z,99680.06
2022-08-08T11:54:38.350Z,99678.72
2022-08-08T11:57:46.771Z,99684.47
2022-08-08T12:00:56.329Z,99688.75
2022-08-08T12:03:59.774Z,99681.53
2022-08-08T12:07:04.727Z,99683.41
2022-08-08T12:10:15.009Z,99692.28
2022-08-08T12:13:38.504Z,99697.88
2022-08-08T12:16:49.428Z,99702.38
2022-08-08T12:19:57.367Z,99708.53
2022-08-08T12:22:59.629Z,99702.94
2022-08-08T12:26:17.191Z,99712.41
2022-08-08T12:29:40.787Z,99705.59
2022-08-08T12:32:48.089Z,99704.13
2022-08-08T12:35:53.035Z,99703.22
2022-08-08T12:38:55.393Z,99709.41
2022-08-08T12:42:01.855Z,99706.94
2022-08-08T12:45:53.731Z,99708.25
2022-08-08T12:48:36.871Z,99722.38
2022-08-08T12:51:53.957Z,99709.34
2022-08-08T12:55:35.644Z,99703.91
2022-08-08T12:58:48.546Z,99698.03
2022-08-08T13:01:51.941Z,99706.75
2022-08-08T13:04:56.080Z,99698.00
2022-08-08T13:08:04.436Z,99697.84
2022-08-08T13:11:22.396Z,99699.38
2022-08-08T13:14:53.014Z,99694.91
2022-08-08T13:18:10.489Z,99676.03
2022-08-08T13:21:14.915Z,99676.66
2022-08-08T13:24:39.484Z,99678.38
2022-08-08T13:27:40.261Z,99678.91
2022-08-08T13:30:43.804Z,99676.72
2022-08-08T13:33:50.231Z,99677.19
2022-08-08T13:36:53.845Z,99669.97
2022-08-08T13:39:58.355Z,99671.69
2022-08-08T13:43:00.434Z,99671.59
2022-08-08T13:46:26.726Z,99670.63
2022-08-08T13:50:37.105Z,99667.91
2022-08-08T13:52:55.092Z,99674.00
2022-08-08T13:56:02.449Z,99677.91
2022-08-08T13:59:05.274Z,99682.25
2022-08-08T14:02:21.235Z,99689.75
2022-08-08T14:05:28.366Z,99686.44
2022-08-08T14:08:34.693Z,99691.50
2022-08-08T14:11:36.880Z,99683.84
2022-08-08T14:14:43.219Z,99681.22
2022-08-08T14:17:59.001Z,99678.03
2022-08-08T14:21:20.888Z,99667.34
2022-08-08T14:24:34.222Z,99659.09
2022-08-08T14:27:40.381Z,99649.81
2022-08-08T14:30:47.579Z,99642.94
2022-08-08T14:33:57.169Z,99637.50
2022-08-08T14:37:08.280Z,99634.78
2022-08-08T14:40:18.033Z,99641.97
2022-08-08T14:43:31.287Z,99629.44
2022-08-08T14:46:42.348Z,99635.94
2022-08-08T14:50:06.891Z,99627.69
2022-08-08T14:53:13.445Z,99625.56
2022-08-08T14:56:16.125Z,99627.09
2022-08-08T14:59:31.749Z,99630.13
2022-08-08T15:03:01.560Z,99625.50
2022-08-08T15:06:03.093Z,99631.72
2022-08-08T15:09:07.236Z,99622.50
2022-08-08T15:12:09.292Z,99620.84
2022-08-08T15:15:18.823Z,99628.41
2022-08-08T15:18:36.856Z,99625.09
2022-08-08T15:21:42.860Z,99629.84
2022-08-08T15:24:44.897Z,99633.16
2022-08-08T15:28:03.578Z,99635.03
2022-08-08T15:31:55.955Z,99640.09
2022-08-08T15:34:36.598Z,99627.44
2022-08-08T15:37:40.885Z,99625.38
2022-08-08T15:40:44.320Z,99618.28
2022-08-08T15:44:00.642Z,99617.91
2022-08-08T15:47:03.446Z,99613.75
2022-08-08T15:50:16.795Z,99615.81
2022-08-08T15:53:23.763Z,99606.47
2022-08-08T15:56:27.903Z,99595.94
2022-08-08T16:00:05.177Z,99598.81
2022-08-08T16:02:53.321Z,99598.00
2022-08-08T16:06:01.837Z,99591.75
2022-08-08T16:13:03.133Z,99596.13
2022-08-08T16:13:27.254Z,99596.56
2022-08-08T16:15:57.163Z,99596.94
2022-08-08T16:19:11.096Z,99597.16
2022-08-08T16:22:30.340Z,99591.34
2022-08-08T16:25:46.641Z,99592.59
2022-08-08T16:28:56.632Z,99597.59
2022-08-08T16:31:58.490Z,99593.63
2022-08-08T16:35:03.322Z,99601.13
2022-08-08T16:38:08.680Z,99605.88
2022-08-08T16:41:20.043Z,99605.25
2022-08-08T16:44:28.168Z,99602.56
2022-08-08T16:47:41.690Z,99616.25
2022-08-08T16:50:44.656Z,99612.91
2022-08-08T16:55:22.771Z,99615.97
2022-08-08T16:57:27.914Z,99611.19
2022-08-08T17:00:30.151Z,99624.84
2022-08-08T17:03:59.804Z,99620.91
2022-08-08T17:06:54.051Z,99619.25
2022-08-08T17:09:55.994Z,99629.41
2022-08-08T17:12:59.863Z,99628.16
2022-08-08T17:16:02.238Z,99628.16
2022-08-08T17:19:04.523Z,99634.38
2022-08-08T17:22:06.423Z,99628.38
2022-08-08T17:25:11.829Z,99639.03
2022-08-08T17:28:13.824Z,99637.50
2022-08-08T17:31:45.126Z,99639.63
2022-08-08T17:35:04.438Z,99630.94
2022-08-08T17:38:01.520Z,99643.00
2022-08-08T17:41:05.792Z,99637.59
2022-08-08T17:44:11.163Z,99637.00
2022-08-08T17:47:23.262Z,99647.56
2022-08-08T17:50:26.562Z,99641.75
2022-08-08T17:53:31.231Z,99644.44
2022-08-08T17:56:46.503Z,99649.41
2022-08-08T17:59:48.365Z,99653.16
2022-08-08T18:03:08.610Z,99659.97
2022-08-08T18:06:22.142Z,99669.06
2022-08-08T18:09:38.046Z,99667.00
2022-08-08T18:12:42.819Z,99668.44
2022-08-08T18:15:46.481Z,99676.75
2022-08-08T18:19:02.513Z,99665.50
2022-08-08T18:22:05.956Z,99665.06
2022-08-08T18:25:36.984Z,99665.88
2022-08-08T18:28:54.691Z,99666.06
2022-08-08T18:31:59.332Z,99666.22
2022-08-08T18:35:01.088Z,99667.19
2022-08-08T18:38:03.918Z,99678.38
2022-08-08T18:41:19.494Z,99683.53
2022-08-08T18:44:41.942Z,99684.28
2022-08-08T18:47:43.743Z,99681.19
2022-08-08T18:50:50.122Z,99686.38
2022-08-08T18:54:02.744Z,99690.50
2022-08-08T18:57:12.772Z,99697.94
2022-08-08T19:00:20.870Z,99697.28
2022-08-08T19:03:22.958Z,99696.47
2022-08-08T19:06:26.423Z,99698.31
2022-08-08T19:09:48.750Z,99698.53
2022-08-08T19:12:53.548Z,99702.44
2022-08-08T19:15:56.160Z,99702.63
2022-08-08T19:19:02.472Z,99702.19
2022-08-08T19:22:05.155Z,99712.56
2022-08-08T19:26:01.848Z,99717.97
2022-08-08T19:28:30.265Z,99712.56
2022-08-08T19:31:35.506Z,99711.75
2022-08-08T19:34:41.463Z,99718.78
2022-08-08T19:37:48.545Z,99721.47
2022-08-08T19:40:57.756Z,99714.00
2022-08-08T19:44:12.635Z,99719.00
2022-08-08T19:47:25.525Z,99721.88
2022-08-08T19:50:35.776Z,99723.72
2022-08-08T19:53:51.755Z,99722.06
2022-08-08T19:56:54.419Z,99726.16
2022-08-08T19:59:56.154Z,99718.06
2022-08-08T20:02:58.247Z,99715.31
2022-08-08T20:06:14.054Z,99708.88
2022-08-08T20:09:22.705Z,99717.88
2022-08-08T20:12:32.787Z,99712.25
2022-08-08T20:15:59.956Z,99710.53
2022-08-08T20:18:58.715Z,99712.53
2022-08-08T20:22:03.147Z,99709.19
2022-08-08T20:25:08.482Z,99707.47
2022-08-08T20:28:19.943Z,99702.25
2022-08-08T20:31:47.095Z,99700.94
2022-08-08T20:34:48.362Z,99700.31
2022-08-08T20:37:55.599Z,99708.75
2022-08-08T20:40:57.630Z,99712.84
2022-08-08T20:44:01.037Z,99711.75
2022-08-08T20:47:02.894Z,99709.06
2022-08-08T20:50:10.043Z,99720.03
2022-08-08T20:53:16.730Z,99714.66
2022-08-08T20:56:34.972Z,99709.63
2022-08-08T20:59:41.308Z,99711.97
2022-08-08T21:02:44.075Z,99721.03
2022-08-08T21:05:59.079Z,99725.13
2022-08-08T21:09:01.012Z,99723.63
2022-08-08T21:12:03.628Z,99725.50
2022-08-08T21:15:09.638Z,99727.56
2022-08-08T21:18:11.987Z,99724.81
2022-08-08T21:21:20.621Z,99722.13
2022-08-08T21:24:52.175Z,99726.00
2022-08-08T21:28:14.415Z,99718.13
2022-08-08T21:31:22.520Z,99713.13
2022-08-08T21:34:25.105Z,99717.88
2022-08-08T21:37:54.108Z,99709.56
2022-08-08T21:40:56.147Z,99713.44
2022-08-08T21:43:58.802Z,99723.53
2022-08-08T21:48:20.134Z,99728.63
2022-08-08T21:50:23.625Z,99726.28
2022-08-08T21:54:32.272Z,99720.66
2022-08-08T21:56:48.926Z,99714.00
2022-08-08T22:00:02.518Z,99726.56
2022-08-08T22:03:17.924Z,99725.94
2022-08-08T22:06:31.189Z,99719.09
2022-08-08T22:09:40.993Z,99720.78
2022-08-08T22:12:45.557Z,99721.13
2022-08-08T22:15:58.780Z,99714.94
2022-08-08T22:19:08.933Z,99717.81
2022-08-08T22:22:19.125Z,99712.81
2022-08-08T22:25:25.058Z,99722.72
2022-08-08T22:29:13.856Z,99728.06
2022-08-08T22:31:58.526Z,99728.06
2022-08-08T22:35:04.078Z,99725.59
2022-08-08T22:38:05.990Z,99734.19
2022-08-08T22:41:15.978Z,99739.75
2022-08-08T22:44:23.073Z,99743.00
2022-08-08T22:47:37.600Z,99742.31
2022-08-08T22:50:39.821Z,99747.06
2022-08-08T22:54:30.924Z,99742.78
2022-08-08T22:57:08.642Z,99740.50
2022-08-08T23:00:13.914Z,99748.06
2022-08-08T23:03:18.308Z,99744.56
2022-08-08T23:06:24.275Z,99745.56
2022-08-08T23:09:30.593Z,99747.59
2022-08-08T23:12:40.334Z,99741.59
2022-08-08T23:16:40.567Z,99748.63
2022-08-08T23:19:04.460Z,99756.03
2022-08-08T23:22:10.962Z,99751.50
2022-08-08T23:25:12.780Z,99755.16
2022-08-08T23:28:20.202Z,99754.34
2022-08-08T23:31:22.630Z,99759.06
2022-08-08T23:34:24.709Z,99752.88
2022-08-08T23:38:00.748Z,99748.03
2022-08-08T23:40:49.184Z,99742.69
2022-08-08T23:43:56.504Z,99741.84
2022-08-08T23:49:00.078Z,99746.38
2022-08-08T23:50:30.546Z,99741.03
2022-08-08T23:54:05.562Z,99742.69
2022-08-08T23:56:57.595Z,99732.97
